Time;durP1;ratioP1;P1;durP2;ratioP2;P2;SDS_P1;SDS_P2;PMS_P1;PMS_P2;Temp;Humidity;BMP_temperature;BMP_pressure;BME280_temperature;BME280_humidity;BME280_pressure;Samples;Min_cycle;Max_cycle;Signal;HPM_P1;HPM_P2
2022/06/22 00:01:00;;;;;;;7.03;3.50;;;;;;;24.47;100.00;100794.09;2064672;28;20178;-68
2022/06/22 00:02:11;;;;;;;6.90;3.73;;;;;;;24.16;100.00;100763.38;2064415;28;20170;-68
2022/06/22 00:03:12;;;;;;;9.27;3.60;;;;;;;24.44;100.00;100798.75;2064790;28;20155;-68
2022/06/22 00:04:27;;;;;;;5.47;3.57;;;;;;;24.42;100.00;100798.50;2064228;28;20767;-68
2022/06/22 00:05:43;;;;;;;8.60;3.57;;;;;;;24.46;100.00;100798.22;2064635;28;20237;-68
2022/06/22 00:06:54;;;;;;;5.90;3.67;;;;;;;24.39;100.00;100802.38;2064219;28;20241;-68
2022/06/22 00:07:59;;;;;;;10.30;3.50;;;;;;;24.07;100.00;100749.53;2064053;28;20181;-68
2022/06/22 00:09:01;;;;;;;6.53;3.47;;;;;;;23.40;100.00;100664.13;2064828;28;20166;-68
2022/06/22 00:10:14;;;;;;;6.70;3.50;;;;;;;24.27;100.00;100803.75;2063713;28;20183;-68
2022/06/22 00:11:15;;;;;;;6.67;3.90;;;;;;;24.26;100.00;100809.94;2063818;28;20167;-68
2022/06/22 00:12:31;;;;;;;8.33;3.77;;;;;;;23.91;100.00;100784.34;2064232;28;20660;-68
2022/06/22 00:13:33;;;;;;;8.90;3.83;;;;;;;24.19;100.00;100818.94;2064519;28;20161;-68
2022/06/22 00:14:52;;;;;;;8.50;3.60;;;;;;;24.17;100.00;100827.22;2064338;28;20183;-68
2022/06/22 00:16:02;;;;;;;7.13;3.43;;;;;;;24.12;100.00;100823.13;2064374;28;20241;-68
2022/06/22 00:17:03;;;;;;;8.80;3.40;;;;;;;24.04;100.00;100822.13;2064421;28;20203;-68
2022/06/22 00:18:31;;;;;;;7.13;3.83;;;;;;;24.03;100.00;100823.41;2063816;28;20245;-68
2022/06/22 00:19:36;;;;;;;7.53;3.47;;;;;;;24.03;100.00;100823.41;2064421;28;20178;-68
2022/06/22 00:20:37;;;;;;;5.60;3.43;;;;;;;23.99;100.00;100824.94;2064719;28;20591;-68
2022/06/22 00:21:40;;;;;;;8.17;3.83;;;;;;;23.97;100.00;100822.66;2063743;28;20186;-68
2022/06/22 00:22:53;;;;;;;6.87;3.43;;;;;;;23.89;100.00;100823.72;2064589;28;20178;-69
2022/06/22 00:23:57;;;;;;;9.23;3.90;;;;;;;23.74;100.00;100792.09;2064187;28;20657;-68
2022/06/22 00:25:19;;;;;;;7.87;3.87;;;;;;;23.65;100.00;100789.53;2064618;28;20182;-69
2022/06/22 00:26:33;;;;;;;6.27;3.30;;;;;;;22.99;100.00;100688.63;2064126;28;20197;-68
2022/06/22 00:27:37;;;;;;;5.83;3.50;;;;;;;23.69;100.00;100818.34;2064010;28;20189;-68
2022/06/22 00:29:00;;;;;;;6.60;3.27;;;;;;;23.65;100.00;100812.19;2064552;28;20220;-68
2022/06/22 00:30:15;;;;;;;7.60;3.50;;;;;;;23.68;100.00;100814.72;2064402;28;20205;-68
2022/06/22 00:31:36;;;;;;;6.63;3.33;;;;;;;23.67;100.00;100827.34;2064158;28;20174;-68
2022/06/22 00:32:36;;;;;;;7.73;3.70;;;;;;;23.69;100.00;100815.50;2064651;28;20166;-68
2022/06/22 00:33:37;;;;;;;5.90;3.50;;;;;;;23.71;100.00;100818.59;2063711;28;20213;-68
2022/06/22 00:34:38;;;;;;;11.27;4.20;;;;;;;23.53;100.00;100788.00;2063666;28;20170;-68
2022/06/22 00:35:44;;;;;;;8.33;3.97;;;;;;;23.70;100.00;100817.06;2064497;28;20181;-69
2022/06/22 00:37:02;;;;;;;5.33;3.70;;;;;;;23.68;100.00;100811.13;2064106;28;20206;-68
2022/06/22 00:38:05;;;;;;;7.23;4.00;;;;;;;23.68;100.00;100816.78;2063727;28;20658;-68
2022/06/22 00:39:16;;;;;;;5.23;3.40;;;;;;;23.05;100.00;100737.44;2064745;28;20175;-68
2022/06/22 00:40:17;;;;;;;6.43;3.50;;;;;;;23.57;100.00;100816.81;2064574;28;20174;-68
2022/06/22 00:41:23;;;;;;;8.50;3.60;;;;;;;23.59;100.00;100817.06;2064369;28;20235;-68
2022/06/22 00:42:41;;;;;;;9.63;3.73;;;;;;;23.61;100.00;100812.44;2063872;28;20236;-68
2022/06/22 00:43:41;;;;;;;6.27;3.60;;;;;;;23.05;100.00;100716.88;2063819;28;20163;-68
2022/06/22 00:44:46;;;;;;;12.23;3.40;;;;;;;23.66;100.00;100808.84;2064511;28;20735;-68
2022/06/22 00:45:49;;;;;;;8.63;3.93;;;;;;;23.57;100.00;100786.47;2064401;28;20182;-68
2022/06/22 00:47:14;;;;;;;6.80;3.60;;;;;;;23.67;100.00;100806.75;2064188;28;20648;-68
2022/06/22 00:48:23;;;;;;;8.37;3.83;;;;;;;23.62;100.00;100804.72;2065980;28;20413;-68
2022/06/22 00:49:24;;;;;;;8.07;3.60;;;;;;;22.56;100.00;100633.69;2066250;28;20158;-68
2022/06/22 00:50:38;;;;;;;7.10;4.07;;;;;;;23.62;100.00;100794.19;2066078;28;20675;-68
2022/06/22 00:51:40;;;;;;;6.83;3.40;;;;;;;23.56;100.00;100796.25;2064610;28;20166;-68
2022/06/22 00:52:49;;;;;;;5.30;3.33;;;;;;;23.58;100.00;100807.81;2065544;28;20565;-68
2022/06/22 00:53:57;;;;;;;6.83;3.67;;;;;;;22.94;100.00;100708.41;2065790;28;20162;-68
2022/06/22 00:54:58;;;;;;;12.53;4.17;;;;;;;23.50;100.00;100797.53;2065692;28;20413;-68
2022/06/22 00:56:09;;;;;;;7.73;3.90;;;;;;;23.35;100.00;100778.03;2065373;28;20591;-68
2022/06/22 00:57:14;;;;;;;8.50;4.00;;;;;;;23.39;100.00;100801.16;2065276;28;20244;-68
2022/06/22 00:58:21;;;;;;;7.10;4.10;;;;;;;22.92;100.00;100731.53;2065671;28;20166;-68
2022/06/22 00:59:29;;;;;;;10.07;3.80;;;;;;;23.33;100.00;100774.19;2064868;28;20808;-68
2022/06/22 01:00:36;;;;;;;7.93;3.90;;;;;;;22.61;100.00;100664.00;2066160;28;20528;-68
2022/06/22 01:02:15;;;;;;;6.93;3.87;;;;;;;23.39;100.00;100786.25;2065411;28;20166;-68
2022/06/22 01:03:20;;;;;;;7.03;4.00;;;;;;;23.40;100.00;100782.13;2065215;28;20480;-68
2022/06/22 01:04:51;;;;;;;4.47;3.57;;;;;;;23.40;100.00;100777.25;2064386;28;20429;-68
2022/06/22 01:06:07;;;;;;;5.60;3.40;;;;;;;22.53;100.00;100660.16;2057450;28;20433;-68
2022/06/22 01:07:18;;;;;;;8.00;3.77;;;;;;;23.39;100.00;100780.59;2057633;28;20462;-68
2022/06/22 01:08:31;;;;;;;9.30;4.03;;;;;;;23.37;100.00;100781.09;2057214;28;20465;-68
2022/06/22 01:09:41;;;;;;;8.87;4.07;;;;;;;23.36;100.00;100781.63;2059997;28;20207;-68
2022/06/22 01:11:02;;;;;;;5.33;3.70;;;;;;;23.38;100.00;100779.81;2066116;28;20167;-68
2022/06/22 01:12:16;;;;;;;8.63;4.33;;;;;;;23.40;100.00;100780.09;2065858;28;20162;-68
2022/06/22 01:13:30;;;;;;;9.20;3.63;;;;;;;23.41;100.00;100775.97;2066057;28;20170;-68
2022/06/22 01:14:45;;;;;;;7.83;4.00;;;;;;;22.71;100.00;100675.78;2065728;28;20417;-68
2022/06/22 01:15:58;;;;;;;12.50;4.20;;;;;;;23.42;100.00;100788.03;2065905;28;20166;-68
2022/06/22 01:17:01;;;;;;;6.10;3.70;;;;;;;22.86;100.00;100727.94;2064978;28;20237;-68
2022/06/22 01:18:11;;;;;;;6.73;4.00;;;;;;;23.36;100.00;100801.41;2064591;28;20601;-68
2022/06/22 01:19:11;;;;;;;8.47;4.17;;;;;;;23.34;100.00;100801.94;2066038;28;20734;-68
2022/06/22 01:20:20;;;;;;;8.17;4.37;;;;;;;23.22;100.00;100783.44;2065802;28;20682;-68
2022/06/22 01:21:25;;;;;;;10.63;4.10;;;;;;;22.58;100.00;100696.09;2065346;28;20175;-68
2022/06/22 01:22:45;;;;;;;6.37;4.27;;;;;;;23.24;100.00;100803.47;2065795;28;20196;-68
2022/06/22 01:24:13;;;;;;;5.37;4.20;;;;;;;23.25;100.00;100805.03;2064431;28;20309;-68
2022/06/22 01:25:44;;;;;;;7.07;4.00;;;;;;;23.29;100.00;100799.13;2065357;28;20441;-68
2022/06/22 01:27:17;;;;;;;7.27;4.33;;;;;;;23.30;100.00;100786.53;2065285;28;20178;-68
2022/06/22 01:28:18;;;;;;;7.23;4.03;;;;;;;23.27;100.00;100793.97;2064569;28;20194;-68
2022/06/22 01:29:26;;;;;;;8.67;3.90;;;;;;;23.28;100.00;100795.50;2066015;28;20171;-68
2022/06/22 01:30:39;;;;;;;7.87;3.80;;;;;;;23.12;100.00;100773.66;2065877;28;20182;-68
2022/06/22 01:31:56;;;;;;;7.47;3.93;;;;;;;23.24;100.00;100795.00;2064487;28;20480;-68
2022/06/22 01:32:57;;;;;;;6.83;4.10;;;;;;;23.06;100.00;100770.06;2065483;28;20411;-68
2022/06/22 01:33:58;;;;;;;8.43;3.93;;;;;;;23.16;100.00;100791.13;2065164;28;20425;-68
2022/06/22 01:35:14;;;;;;;6.07;4.03;;;;;;;23.17;100.00;100778.53;2065918;28;20182;-68
2022/06/22 01:36:25;;;;;;;7.60;4.33;;;;;;;23.18;100.00;100790.66;2065380;28;20158;-68
2022/06/22 01:37:30;;;;;;;6.17;3.77;;;;;;;23.15;100.00;100786.78;2065235;28;20444;-68
2022/06/22 01:38:37;;;;;;;6.80;3.83;;;;;;;23.18;100.00;100790.66;2066093;28;20175;-68
2022/06/22 01:39:37;;;;;;;6.03;3.80;;;;;;;23.15;100.00;100788.81;2065783;28;20807;-68
2022/06/22 01:40:52;;;;;;;6.67;3.90;;;;;;;23.10;100.00;100781.09;2065615;28;20249;-68
2022/06/22 01:42:01;;;;;;;7.77;4.03;;;;;;;23.08;100.00;100766.72;2065483;28;20167;-68
2022/06/22 01:43:23;;;;;;;6.43;3.93;;;;;;;22.99;100.00;100756.47;2065982;28;20923;-68
2022/06/22 01:45:05;;;;;;;8.53;4.30;;;;;;;23.00;100.00;100768.53;2065394;28;20167;-68
2022/06/22 01:46:36;;;;;;;6.70;4.10;;;;;;;22.98;100.00;100768.28;2063416;28;20192;-68
2022/06/22 01:47:44;;;;;;;8.40;3.93;;;;;;;22.96;100.00;100774.44;2055851;28;20426;-68
2022/06/22 01:49:00;;;;;;;7.27;4.27;;;;;;;22.93;100.00;100777.53;2062534;28;20433;-68
2022/06/22 01:50:22;;;;;;;8.77;4.00;;;;;;;22.89;100.00;100765.69;2065579;28;20401;-68
2022/06/22 01:51:31;;;;;;;6.93;4.37;;;;;;;22.82;100.00;100766.22;2065232;28;20412;-68
2022/06/22 01:52:39;;;;;;;8.40;4.27;;;;;;;22.85;100.00;100762.34;2065752;28;20226;-68
2022/06/22 01:53:47;;;;;;;6.30;3.93;;;;;;;22.85;100.00;100753.88;2065760;28;20175;-68
2022/06/22 01:55:04;;;;;;;8.87;4.07;;;;;;;22.84;100.00;100770.06;2065636;28;20418;-68
2022/06/22 01:56:26;;;;;;;6.60;3.70;;;;;;;22.87;100.00;100768.28;2065404;28;20402;-68
2022/06/22 01:57:35;;;;;;;10.13;3.60;;;;;;;22.91;100.00;100768.78;2065001;28;20711;-68
2022/06/22 01:58:47;;;;;;;9.97;4.30;;;;;;;22.05;100.00;100639.81;2065130;28;20417;-68
2022/06/22 01:59:56;;;;;;;8.07;3.93;;;;;;;22.67;100.00;100734.63;2065345;28;20929;-68
2022/06/22 02:01:03;;;;;;;4.63;3.50;;;;;;;22.80;100.00;100752.59;2065173;28;20973;-68
2022/06/22 02:02:13;;;;;;;7.70;4.13;;;;;;;22.90;100.00;100776.50;2065250;28;20429;-68
2022/06/22 02:03:21;;;;;;;7.80;4.03;;;;;;;22.82;100.00;100763.41;2065866;28;20166;-68
2022/06/22 02:04:27;;;;;;;7.57;4.30;;;;;;;21.95;100.00;100632.09;2064440;28;20167;-68
2022/06/22 02:05:28;;;;;;;7.50;3.70;;;;;;;22.89;100.00;100783.44;2065056;28;20205;-68
2022/06/22 02:08:08;;;;;;;7.87;3.70;;;;;;;22.90;100.00;100770.84;2065010;28;20253;-69
2022/06/22 02:09:13;;;;;;;6.60;4.10;;;;;;;22.84;100.00;100760.81;2065656;28;20401;-68
2022/06/22 02:10:41;;;;;;;8.23;4.00;;;;;;;22.87;100.00;100774.69;2057436;28;20517;-68
2022/06/22 02:11:50;;;;;;;6.20;3.70;;;;;;;22.70;100.00;100742.06;2056899;28;20394;-68
2022/06/22 02:13:02;;;;;;;9.13;4.17;;;;;;;22.84;100.00;100777.78;2057584;28;20861;-68
2022/06/22 02:14:13;;;;;;;9.00;4.17;;;;;;;22.70;100.00;100756.97;2056942;28;20866;-68
2022/06/22 02:15:23;;;;;;;7.87;4.30;;;;;;;22.85;100.00;100776.47;2057589;28;20407;-68
2022/06/22 02:16:35;;;;;;;6.70;3.63;;;;;;;22.84;100.00;100769.28;2064260;28;20444;-68
2022/06/22 02:17:39;;;;;;;6.20;3.73;;;;;;;22.44;100.00;100708.41;2064823;28;20422;-68
2022/06/22 02:18:56;;;;;;;7.63;3.60;;;;;;;22.85;100.00;100777.25;2065595;28;20422;-68
2022/06/22 02:20:17;;;;;;;6.23;3.80;;;;;;;22.83;100.00;100776.97;2065523;28;20504;-68
2022/06/22 02:21:22;;;;;;;5.97;3.43;;;;;;;22.84;100.00;100778.56;2065025;28;20508;-68
2022/06/22 02:22:23;;;;;;;8.77;3.90;;;;;;;22.84;100.00;100780.59;2065284;28;20417;-68
2022/06/22 02:23:32;;;;;;;7.27;3.63;;;;;;;22.86;100.00;100789.31;2065448;28;20174;-68
2022/06/22 02:24:39;;;;;;;6.00;3.80;;;;;;;22.50;100.00;100731.78;2065084;28;20166;-68
2022/06/22 02:25:47;;;;;;;7.67;3.80;;;;;;;22.71;100.00;100774.66;2065402;28;20531;-68
2022/06/22 02:27:12;;;;;;;8.30;4.07;;;;;;;21.99;100.00;100661.59;2065159;28;20159;-69
2022/06/22 02:28:13;;;;;;;7.97;3.50;;;;;;;22.74;100.00;100784.94;2065278;28;20190;-68
2022/06/22 02:29:16;;;;;;;8.47;3.80;;;;;;;22.81;100.00;100792.91;2065552;28;20177;-68
2022/06/22 02:30:17;;;;;;;8.50;3.63;;;;;;;22.80;100.00;100797.81;2065320;28;20183;-68
2022/06/22 02:31:20;;;;;;;9.30;4.00;;;;;;;22.76;100.00;100791.63;2064791;28;20189;-68
2022/06/22 02:32:33;;;;;;;9.07;3.40;;;;;;;22.76;100.00;100793.69;2065310;28;20260;-68
2022/06/22 02:33:35;;;;;;;6.20;3.87;;;;;;;22.74;100.00;100780.09;2065338;28;20656;-68
2022/06/22 02:34:38;;;;;;;7.33;3.50;;;;;;;22.72;100.00;100793.19;2065104;28;20261;-68
2022/06/22 02:35:40;;;;;;;9.10;3.43;;;;;;;22.71;100.00;100789.56;2065343;28;20178;-68
2022/06/22 02:36:44;;;;;;;7.43;3.50;;;;;;;22.10;100.00;100683.44;2064850;28;20178;-68
2022/06/22 02:38:02;;;;;;;7.43;3.60;;;;;;;22.72;100.00;100774.16;2064720;28;20602;-68
2022/06/22 02:39:04;;;;;;;9.03;4.03;;;;;;;22.81;100.00;100779.56;2064854;28;20651;-68
2022/06/22 02:40:09;;;;;;;6.93;3.40;;;;;;;22.76;100.00;100763.38;2064641;28;20217;-68
2022/06/22 02:45:10;;;;;;;8.33;3.33;;;;;;;22.85;100.00;100782.91;2065423;28;20636;-68
2022/06/22 02:46:17;;;;;;;7.07;3.33;;;;;;;22.91;100.00;100780.84;2064922;28;20186;-68
2022/06/22 02:47:39;;;;;;;12.60;3.40;;;;;;;22.95;100.00;100778.56;2064845;28;20725;-68
2022/06/22 02:48:44;;;;;;;5.70;3.50;;;;;;;22.93;100.00;100771.88;2065485;28;20170;-68
2022/06/22 02:50:07;;;;;;;10.30;3.50;;;;;;;22.97;100.00;100775.97;2065187;28;20236;-68
2022/06/22 02:51:25;;;;;;;7.70;3.40;;;;;;;22.63;100.00;100725.63;2064944;28;20702;-68
2022/06/22 02:52:35;;;;;;;6.80;3.47;;;;;;;22.25;100.00;100669.84;2065110;28;20177;-68
2022/06/22 02:53:39;;;;;;;9.27;3.73;;;;;;;22.98;100.00;100788.06;2065225;28;20815;-68
2022/06/22 02:54:46;;;;;;;8.53;3.57;;;;;;;22.98;100.00;100790.88;2064888;28;20179;-68
2022/06/22 02:55:46;;;;;;;8.57;3.40;;;;;;;22.98;100.00;100788.81;2065267;28;20171;-68
2022/06/22 02:57:00;;;;;;;7.77;3.60;;;;;;;23.03;100.00;100790.13;2064841;28;20711;-68
2022/06/22 02:58:03;;;;;;;7.30;3.30;;;;;;;23.08;100.00;100797.81;2064464;28;20191;-68
2022/06/22 02:59:04;;;;;;;10.23;3.40;;;;;;;23.13;100.00;100789.31;2065242;28;20174;-68
2022/06/22 03:00:06;;;;;;;6.00;3.80;;;;;;;23.17;100.00;100789.84;2065018;28;20253;-68
2022/06/22 03:01:14;;;;;;;6.97;3.50;;;;;;;22.39;100.00;100678.09;2064850;28;20174;-68
2022/06/22 03:02:16;;;;;;;7.50;3.50;;;;;;;23.16;100.00;100791.13;2065049;28;20174;-68
2022/06/22 03:03:17;;;;;;;6.57;3.53;;;;;;;23.14;100.00;100793.69;2065339;28;20182;-68
2022/06/22 03:04:18;;;;;;;9.07;3.30;;;;;;;22.78;100.00;100734.63;2064662;28;20177;-68
2022/06/22 03:05:20;;;;;;;8.23;3.30;;;;;;;22.82;100.00;100743.63;2065187;28;20254;-68
2022/06/22 03:06:31;;;;;;;7.17;3.20;;;;;;;21.98;100.00;100611.31;2064547;28;20245;-68
2022/06/22 03:07:36;;;;;;;7.97;3.40;;;;;;;23.21;100.00;100806.56;2064598;28;20673;-68
2022/06/22 03:08:37;;;;;;;7.13;3.37;;;;;;;;;;2064516;28;20213;-68
2022/06/22 03:09:39;;;;;;;5.53;3.53;;;;;;;22.39;100.00;100675.25;2064370;28;20182;-68
2022/06/22 03:10:50;;;;;;;10.03;3.83;;;;;;;23.21;100.00;100806.56;2064187;28;20183;-68
2022/06/22 03:11:55;;;;;;;9.40;3.40;;;;;;;23.00;100.00;100791.13;2064361;28;20544;-68
2022/06/22 03:12:57;;;;;;;6.60;3.40;;;;;;;22.68;100.00;100764.41;2065141;28;20209;-68
2022/06/22 03:14:16;;;;;;;6.33;3.60;;;;;;;23.11;100.00;100822.22;2064543;28;20529;-68
2022/06/22 03:15:21;;;;;;;7.53;3.47;;;;;;;23.06;100.00;100820.94;2064562;28;20163;-68
2022/06/22 03:16:35;;;;;;;7.47;3.30;;;;;;;23.06;100.00;100826.59;2063922;28;20214;-68
2022/06/22 03:17:38;;;;;;;5.77;3.10;;;;;;;22.31;100.00;100705.28;2064495;28;20181;-68
2022/06/22 03:18:42;;;;;;;9.00;3.60;;;;;;;22.98;100.00;100813.50;2065070;28;20667;-68
2022/06/22 03:19:48;;;;;;;6.23;3.07;;;;;;;22.25;100.00;100696.03;2064951;28;20178;-68
2022/06/22 03:20:53;;;;;;;9.10;3.77;;;;;;;23.04;100.00;100814.25;2064974;28;20170;-68
2022/06/22 03:21:54;;;;;;;6.27;2.90;;;;;;;22.65;100.00;100759.75;2064638;28;20221;-68
2022/06/22 03:23:17;;;;;;;8.63;3.60;;;;;;;22.97;100.00;100815.53;2064231;28;20179;-68
2022/06/22 03:24:33;;;;;;;5.30;3.20;;;;;;;22.61;100.00;100754.38;2064158;28;20646;-68
2022/06/22 03:25:44;;;;;;;6.70;3.27;;;;;;;22.81;100.00;100804.22;2064752;28;20174;-68
2022/06/22 03:26:51;;;;;;;6.10;3.30;;;;;;;22.98;100.00;100813.50;2064720;28;20637;-69
2022/06/22 03:27:58;;;;;;;4.63;3.20;;;;;;;22.12;100.00;100681.66;2064212;28;20265;-69
2022/06/22 03:29:09;;;;;;;7.37;3.33;;;;;;;23.00;100.00;100814.53;2065066;28;20249;-68
2022/06/22 03:30:17;;;;;;;7.47;3.17;;;;;;;22.99;100.00;100815.03;2064908;28;20194;-68
2022/06/22 03:31:27;;;;;;;6.97;3.33;;;;;;;23.03;100.00;100804.25;2064542;28;20170;-68
2022/06/22 03:32:34;;;;;;;4.77;3.20;;;;;;;23.04;100.00;100812.22;2064967;28;20171;-68
2022/06/22 03:33:43;;;;;;;7.23;3.30;;;;;;;23.09;100.00;100813.50;2064797;28;20573;-68
2022/06/22 03:34:53;;;;;;;5.83;3.23;;;;;;;23.07;100.00;100808.34;2064818;28;20181;-68
2022/06/22 03:36:01;;;;;;;6.70;3.30;;;;;;;23.08;100.00;100815.53;2064148;28;20171;-68
2022/06/22 03:37:10;;;;;;;6.60;3.30;;;;;;;22.99;100.00;100798.06;2064126;28;20190;-69
2022/06/22 03:38:33;;;;;;;7.63;3.00;;;;;;;23.08;100.00;100823.25;2063443;28;20172;-69
2022/06/22 03:39:37;;;;;;;7.63;3.13;;;;;;;23.15;100.00;100815.03;2064498;28;20175;-69
2022/06/22 03:40:43;;;;;;;7.53;3.40;;;;;;;23.13;100.00;100820.41;2064856;28;20178;-69
2022/06/22 03:41:57;;;;;;;6.73;3.20;;;;;;;23.13;100.00;100820.41;2064221;28;20739;-69
2022/06/22 03:43:08;;;;;;;6.10;2.90;;;;;;;23.16;100.00;100812.97;2064966;28;20244;-69
2022/06/22 03:44:14;;;;;;;6.97;3.20;;;;;;;23.15;100.00;100815.03;2064386;28;20566;-69
2022/06/22 03:45:34;;;;;;;6.57;2.87;;;;;;;23.22;100.00;100811.72;2064905;28;20159;-69
2022/06/22 03:46:38;;;;;;;8.70;3.43;;;;;;;23.17;100.00;100812.47;2064563;28;20166;-68
2022/06/22 03:47:49;;;;;;;6.27;3.30;;;;;;;22.75;100.00;100750.53;2064215;28;20610;-68
2022/06/22 03:49:01;;;;;;;7.77;3.37;;;;;;;23.22;100.00;100813.75;2064768;28;20174;-68
2022/06/22 03:50:19;;;;;;;6.13;3.03;;;;;;;23.24;100.00;100806.31;2064563;28;20545;-68
2022/06/22 03:51:22;;;;;;;10.23;3.13;;;;;;;;;;2064493;28;20158;-68
2022/06/22 03:52:35;;;;;;;6.60;3.07;;;;;;;23.20;100.00;100822.00;2064724;28;20174;-68
2022/06/22 03:53:49;;;;;;;5.70;3.40;;;;;;;23.12;100.00;100818.88;2064735;28;20191;-68
2022/06/22 03:54:59;;;;;;;8.93;3.40;;;;;;;23.15;100.00;100825.56;2064937;28;20672;-68
2022/06/22 03:56:05;;;;;;;5.83;2.90;;;;;;;23.16;100.00;100818.63;2064505;28;20677;-68
2022/06/22 03:57:12;;;;;;;7.47;3.07;;;;;;;23.22;100.00;100828.69;2064600;28;20707;-68
2022/06/22 03:58:14;;;;;;;8.77;3.33;;;;;;;23.22;100.00;100823.03;2064204;28;20570;-68
2022/06/22 03:59:15;;;;;;;8.53;3.43;;;;;;;23.24;100.00;100828.16;2064903;28;20557;-68
2022/06/22 04:00:17;;;;;;;9.17;3.47;;;;;;;23.27;100.00;100830.72;2064668;28;20202;-68
2022/06/22 04:01:19;;;;;;;7.83;3.50;;;;;;;23.32;100.00;100827.13;2064383;28;20162;-68
2022/06/22 04:02:19;;;;;;;9.40;3.47;;;;;;;23.38;100.00;100827.13;2064450;28;20567;-68
2022/06/22 04:03:21;;;;;;;8.10;3.40;;;;;;;23.07;100.00;100780.09;2064761;28;20272;-68
2022/06/22 04:04:23;;;;;;;4.50;3.20;;;;;;;23.49;100.00;100833.53;2064172;28;20570;-68
2022/06/22 04:05:30;;;;;;;6.70;3.50;;;;;;;23.49;100.00;100833.53;2064755;28;20719;-69
2022/06/22 04:06:36;;;;;;;9.40;4.03;;;;;;;23.49;100.00;100832.78;2064112;28;20190;-69
2022/06/22 04:07:39;;;;;;;6.63;3.70;;;;;;;23.56;100.00;100835.84;2061877;28;20201;-69
2022/06/22 04:08:41;;;;;;;8.27;3.23;;;;;;;23.58;100.00;100846.63;2064712;28;20182;-69
2022/06/22 04:09:48;;;;;;;6.40;3.27;;;;;;;23.61;100.00;100839.94;2064476;28;20225;-68
2022/06/22 04:10:58;;;;;;;7.23;3.03;;;;;;;23.54;100.00;100844.06;2064172;28;20585;-68
2022/06/22 04:12:10;;;;;;;5.63;3.20;;;;;;;23.53;100.00;100853.06;2064484;28;20170;-68
2022/06/22 04:13:18;;;;;;;6.77;3.43;;;;;;;23.47;100.00;100844.59;2064782;28;20245;-68
2022/06/22 04:14:25;;;;;;;8.93;3.40;;;;;;;23.54;100.00;100843.31;2063317;28;20182;-68
2022/06/22 04:15:52;;;;;;;7.93;3.40;;;;;;;23.37;100.00;100806.56;2064067;28;20567;-68
2022/06/22 04:17:08;;;;;;;7.33;3.30;;;;;;;23.63;100.00;100837.38;2060799;28;20242;-69
2022/06/22 04:18:18;;;;;;;7.47;3.40;;;;;;;23.67;100.00;100832.22;2063643;28;20245;-68
2022/06/22 04:19:30;;;;;;;3.50;2.90;;;;;;;23.73;100.00;100833.75;2064712;28;20166;-68
2022/06/22 04:20:51;;;;;;;9.40;3.20;;;;;;;23.76;100.00;100837.59;2061876;28;21172;-69
2022/06/22 04:22:02;;;;;;;6.53;3.00;;;;;;;23.78;100.00;100844.28;2063189;28;20643;-68
2022/06/22 04:23:03;;;;;;;7.07;3.10;;;;;;;23.82;100.00;100839.16;2064052;28;20178;-68
2022/06/22 04:24:11;;;;;;;6.03;3.20;;;;;;;23.85;100.00;100843.00;2063213;28;20452;-69
2022/06/22 04:25:31;;;;;;;7.47;2.97;;;;;;;23.88;100.00;100841.94;2060512;28;20186;-69
2022/06/22 04:26:36;;;;;;;7.87;3.50;;;;;;;23.95;100.00;100847.13;2063409;28;20181;-69
2022/06/22 04:27:48;;;;;;;8.67;3.00;;;;;;;23.32;100.00;100753.59;2063039;28;20637;-69
2022/06/22 04:28:55;;;;;;;10.53;3.40;;;;;;;24.02;100.00;100853.00;2063997;28;20261;-69
2022/06/22 04:30:01;;;;;;;6.30;3.20;;;;;;;24.08;100.00;100847.31;2064167;28;20421;-69
2022/06/22 04:31:07;;;;;;;7.07;3.10;;;;;;;23.08;100.00;100684.75;2059949;28;20597;-68
2022/06/22 04:32:24;;;;;;;7.27;3.00;;;;;;;24.25;100.00;100842.38;2063804;28;20236;-69
2022/06/22 04:33:44;;;;;;;7.20;3.20;;;;;;;24.26;100.00;100839.00;2061672;28;20280;-69
2022/06/22 04:34:52;;;;;;;5.17;2.70;;;;;;;23.48;100.00;100720.91;2059775;28;20280;-68
2022/06/22 04:36:01;;;;;;;10.93;3.00;;;;;;;24.30;100.00;100835.91;2063732;28;20231;-68
2022/06/22 04:37:07;;;;;;;5.97;3.00;;;;;;;24.33;100.00;100837.69;2063085;28;20261;-69
2022/06/22 04:38:51;;;;;;;6.77;2.90;;;;;;;24.40;100.00;100856.97;2062575;28;20202;-68
2022/06/22 04:40:01;;;;;;;5.47;3.13;;;;;;;24.42;100.00;100845.91;2059326;28;20532;-69
2022/06/22 04:41:13;;;;;;;8.27;3.10;;;;;;;24.41;100.00;100845.13;2062684;28;20668;-69
2022/06/22 04:42:14;;;;;;;7.43;2.90;;;;;;;24.44;100.00;100852.56;2060024;28;20174;-68
2022/06/22 04:43:15;;;;;;;10.00;3.20;;;;;;;24.45;100.00;100833.50;2063386;28;20192;-68
2022/06/22 04:44:20;;;;;;;8.93;3.27;;;;;;;24.43;100.00;100836.88;2057571;28;20674;-69
2022/06/22 04:45:30;;;;;;;10.53;3.33;;;;;;;24.42;100.00;100848.72;2062304;28;20190;-69
2022/06/22 04:46:39;;;;;;;14.17;3.77;;;;;;;23.94;100.00;100767.06;2061231;28;20640;-69
2022/06/22 04:47:39;;;;;;;7.90;3.00;;;;;;;24.52;100.00;100842.22;2059671;28;20189;-68
2022/06/22 04:48:46;;;;;;;9.23;3.70;;;;;;;23.86;100.00;100748.31;2062324;28;20660;-68
2022/06/22 04:49:54;;;;;;;6.67;3.10;;;;;;;24.66;100.00;100846.06;2062625;28;20188;-68
2022/06/22 04:51:01;;;;;;;4.97;3.00;;;;;;;24.71;100.00;100850.94;2062510;28;20209;-68
2022/06/22 04:52:19;;;;;;;7.60;2.93;;;;;;;23.76;100.00;100702.56;2063186;28;20174;-68
2022/06/22 04:53:38;;;;;;;6.03;2.80;;;;;;;23.91;100.00;100708.66;2062264;28;20725;-68
2022/06/22 04:54:42;;;;;;;6.53;3.00;;;;;;;24.72;100.00;100863.78;2060271;28;20746;-68
2022/06/22 04:55:43;;;;;;;11.70;3.53;;;;;;;24.71;100.00;100846.00;2061894;28;20287;-69
2022/06/22 04:56:48;;;;;;;9.77;3.40;;;;;;;24.66;100.00;100843.22;2058959;28;20648;-68
2022/06/22 04:57:54;;;;;;;10.37;2.90;;;;;;;24.75;100.00;100834.38;2062355;28;20224;-68
2022/06/22 04:58:56;;;;;;;10.20;3.37;;;;;;;24.73;100.00;100842.66;2062576;28;20179;-68
2022/06/22 05:00:00;;;;;;;11.83;3.93;;;;;;;24.76;100.00;100838.75;2055977;28;20278;-68
2022/06/22 05:01:02;;;;;;;14.70;4.13;;;;;;;24.81;100.00;100841.56;2062073;28;20194;-69
2022/06/22 05:02:06;;;;;;;10.60;3.40;;;;;;;24.91;100.00;100847.66;2062006;28;20201;-68
2022/06/22 05:03:13;;;;;;;12.20;3.53;;;;;;;24.90;100.00;100829.91;2058885;28;20201;-69
2022/06/22 05:04:22;;;;;;;10.17;3.67;;;;;;;25.12;100.00;100851.66;2062046;28;20186;-68
2022/06/22 05:05:26;;;;;;;7.63;3.50;;;;;;;25.25;100.00;100855.44;2062134;28;20178;-68
2022/06/22 05:06:42;;;;;;;17.07;4.10;;;;;;;25.37;100.00;100856.09;2061281;28;20268;-68
2022/06/22 05:07:51;;;;;;;17.83;3.87;;;;;;;25.49;100.00;100866.06;2062514;28;20218;-68
2022/06/22 05:09:06;;;;;;;23.10;4.10;;;;;;;25.52;100.00;100851.59;2060070;28;20287;-68
2022/06/22 05:10:16;;;;;;;19.87;3.50;;;;;;;25.49;100.00;100852.63;2061835;28;20186;-68
2022/06/22 05:11:26;;;;;;;10.90;3.37;;;;;;;25.56;100.00;100852.06;2060739;28;20182;-69
2022/06/22 05:12:29;;;;;;;9.23;3.50;;;;;;;25.62;100.00;100849.94;2062616;28;20253;-68
2022/06/22 05:13:34;;;;;;;8.90;3.00;;;;;;;25.24;100.00;100782.94;2061798;28;20186;-68
2022/06/22 05:14:35;;;;;;;8.07;3.40;;;;;;;25.73;100.00;100849.06;2061807;28;20186;-68
2022/06/22 05:15:38;;;;;;;11.63;3.10;;;;;;;25.71;100.00;100843.16;2061933;28;20518;-68
2022/06/22 05:16:39;;;;;;;6.40;2.50;;;;;;;25.82;100.00;100865.75;2062393;28;20187;-68
2022/06/22 05:17:40;;;;;;;8.07;2.60;;;;;;;25.80;100.00;100859.84;2062820;28;20214;-68
2022/06/22 05:18:42;;;;;;;5.43;2.30;;;;;;;25.75;100.00;100855.72;2062948;28;20198;-68
2022/06/22 05:19:50;;;;;;;5.70;2.50;;;;;;;25.77;100.00;100856.00;2061020;28;20683;-70
2022/06/22 05:21:05;;;;;;;19.77;3.80;;;;;;;25.72;100.00;100853.97;2050862;28;20194;-70
2022/06/22 05:22:15;;;;;;;10.63;3.67;;;;;;;25.79;100.00;100861.13;2058984;28;20997;-68
2022/06/22 05:23:18;;;;;;;9.63;4.70;;;;;;;24.94;100.00;100745.34;2061667;28;20672;-68
2022/06/22 05:24:30;;;;;;;8.57;3.20;;;;;;;25.67;100.00;100863.31;2061809;28;20186;-68